Time;durP1;ratioP1;P1;durP2;ratioP2;P2;SDS_P1;SDS_P2;PMS_P1;PMS_P2;Temp;Humidity;BMP_temperature;BMP_pressure;BME280_temperature;BME280_humidity;BME280_pressure;Samples;Min_cycle;Max_cycle;Signal;HPM_P1;HPM_P2
2022/04/11 00:00:23;;;;;;;2.67;1.50;;;1.70;99.90;;;;;;5046183;28;20063;-68
2022/04/11 00:02:49;;;;;;;2.97;1.23;;;1.60;99.90;;;;;;5045634;28;20040;-68
2022/04/11 00:05:15;;;;;;;2.38;1.45;;;1.60;99.90;;;;;;5047061;28;20076;-68
2022/04/11 00:07:41;;;;;;;2.95;1.80;;;1.50;99.90;;;;;;5078875;28;20067;-68
2022/04/11 00:10:07;;;;;;;2.50;1.30;;;1.50;99.90;;;;;;5047439;28;20085;-68
2022/04/11 00:12:35;;;;;;;3.67;1.27;;;1.50;99.90;;;;;;5045945;28;20377;-68
2022/04/11 00:15:04;;;;;;;4.10;1.30;;;1.50;99.90;;;;;;5048954;28;20079;-68
2022/04/11 00:17:30;;;;;;;3.72;1.42;;;1.50;99.90;;;;;;5047020;28;20045;-68
2022/04/11 00:19:55;;;;;;;2.10;1.20;;;1.50;99.90;;;;;;5047134;28;20464;-68
2022/04/11 00:22:21;;;;;;;2.65;1.27;;;1.50;99.90;;;;;;5044517;28;20476;-68
2022/04/11 00:24:49;;;;;;;3.15;1.50;;;1.40;99.90;;;;;;5044110;28;20136;-68
2022/04/11 00:27:15;;;;;;;2.17;1.00;;;1.50;99.90;;;;;;5043052;28;20859;-68
2022/04/11 00:29:40;;;;;;;1.70;0.95;;;1.40;99.90;;;;;;5045479;28;20029;-68
2022/04/11 00:32:06;;;;;;;3.35;1.33;;;1.40;99.90;;;;;;5044275;28;20041;-68
2022/04/11 00:34:32;;;;;;;2.35;1.65;;;1.40;99.90;;;;;;5047213;28;20135;-68
2022/04/11 00:36:57;;;;;;;3.55;1.40;;;1.40;99.90;;;;;;5046768;28;20033;-68
2022/04/11 00:39:23;;;;;;;2.88;1.15;;;1.30;99.90;;;;;;5030775;28;20045;-68
2022/04/11 00:41:49;;;;;;;5.22;1.52;;;1.40;99.90;;;;;;5046650;28;20056;-68
2022/04/11 00:44:14;;;;;;;3.75;2.45;;;1.40;99.90;;;;;;5048253;28;20037;-68
2022/04/11 00:46:40;;;;;;;2.72;1.83;;;1.40;99.90;;;;;;5045070;28;20052;-68
2022/04/11 00:49:06;;;;;;;5.93;1.70;;;1.40;99.90;;;;;;5044523;28;20056;-69
2022/04/11 00:51:32;;;;;;;5.57;1.73;;;1.30;99.90;;;;;;5050544;28;20052;-68
2022/04/11 00:53:59;;;;;;;2.85;1.65;;;1.30;99.90;;;;;;5045923;28;20468;-68
2022/04/11 00:56:28;;;;;;;3.95;1.48;;;1.30;99.90;;;;;;5043018;28;20082;-68
2022/04/11 00:58:55;;;;;;;3.88;1.60;;;1.30;99.90;;;;;;5044902;28;20045;-68
2022/04/11 01:01:21;;;;;;;3.80;1.48;;;1.20;99.90;;;;;;5048665;28;20037;-68
2022/04/11 01:03:47;;;;;;;3.33;1.77;;;1.20;99.90;;;;;;5050993;28;20059;-68
2022/04/11 01:06:13;;;;;;;6.00;1.55;;;1.20;99.90;;;;;;5049221;28;20037;-68
2022/04/11 01:08:39;;;;;;;3.17;1.77;;;1.20;99.90;;;;;;5052120;28;20560;-68
2022/04/11 01:11:06;;;;;;;3.10;1.75;;;1.10;99.90;;;;;;5048150;28;20036;-68
2022/04/11 01:13:31;;;;;;;6.10;2.30;;;1.10;99.90;;;;;;5049148;28;20041;-68
2022/04/11 01:16:03;;;;;;;7.45;3.10;;;1.10;99.90;;;;;;5048150;28;20044;-69
2022/04/11 01:18:35;;;;;;;6.50;2.47;;;1.10;99.90;;;;;;5049489;28;20045;-69
2022/04/11 01:21:02;;;;;;;4.97;2.80;;;1.10;99.90;;;;;;5050331;28;20098;-68
2022/04/11 01:23:28;;;;;;;5.63;2.35;;;1.10;99.90;;;;;;5052324;28;20037;-68
2022/04/11 01:25:54;;;;;;;4.25;2.55;;;1.10;99.90;;;;;;5049409;28;20048;-68
2022/04/11 01:28:22;;;;;;;3.70;2.03;;;1.10;99.90;;;;;;5053182;28;20133;-68
2022/04/11 01:30:51;;;;;;;4.97;2.17;;;1.10;99.90;;;;;;5052310;28;20044;-68
2022/04/11 01:33:22;;;;;;;6.68;2.42;;;1.10;99.90;;;;;;5050199;28;20721;-68
2022/04/11 01:35:47;;;;;;;4.80;2.10;;;1.10;99.90;;;;;;5051675;28;20029;-68
2022/04/11 01:38:13;;;;;;;4.20;1.73;;;1.10;99.90;;;;;;5048142;28;20387;-68
2022/04/11 01:40:56;;;;;;;6.10;2.28;;;1.10;99.90;;;;;;5050107;28;20049;-68
2022/04/11 01:43:23;;;;;;;5.47;2.28;;;1.10;99.90;;;;;;5049499;28;20127;-68
2022/04/11 01:45:50;;;;;;;4.80;2.05;;;1.10;99.90;;;;;;5046887;28;20060;-68
2022/04/11 01:48:16;;;;;;;3.03;1.83;;;1.10;99.90;;;;;;5049477;28;20056;-68
2022/04/11 01:50:42;;;;;;;4.00;1.95;;;1.10;99.90;;;;;;5051173;28;20072;-68
2022/04/11 01:53:10;;;;;;;4.30;2.17;;;1.00;99.90;;;;;;5056615;28;20496;-68
2022/04/11 01:55:36;;;;;;;3.50;1.98;;;1.00;99.90;;;;;;5041596;28;20045;-68
2022/04/11 01:58:03;;;;;;;3.60;1.77;;;1.00;99.90;;;;;;5048722;28;20037;-68
2022/04/11 02:00:29;;;;;;;3.95;2.10;;;1.00;99.90;;;;;;5046807;28;20120;-68
2022/04/11 02:02:54;;;;;;;4.28;1.83;;;0.90;99.90;;;;;;5046082;28;20047;-67
2022/04/11 02:05:20;;;;;;;3.70;2.15;;;0.90;99.90;;;;;;5048606;28;20132;-67
2022/04/11 02:07:46;;;;;;;5.75;2.55;;;0.90;99.90;;;;;;5050199;28;20110;-67
2022/04/11 02:10:12;;;;;;;2.92;1.98;;;0.90;99.90;;;;;;5048075;28;20052;-67
2022/04/11 02:12:39;;;;;;;3.65;1.83;;;1.00;99.90;;;;;;5050837;28;20122;-67
2022/04/11 02:15:06;;;;;;;3.42;1.85;;;1.00;99.90;;;;;;5047990;28;20482;-68
2022/04/11 02:17:32;;;;;;;5.10;2.45;;;1.00;99.90;;;;;;5082479;28;20063;-68
2022/04/11 02:19:58;;;;;;;4.80;2.58;;;1.00;99.90;;;;;;5048704;28;20404;-67
2022/04/11 02:22:24;;;;;;;5.25;2.03;;;1.00;99.90;;;;;;5050191;28;20060;-67
2022/04/11 02:24:50;;;;;;;4.25;2.10;;;0.90;99.90;;;;;;5047496;28;20417;-67
2022/04/11 02:27:16;;;;;;;4.90;2.20;;;1.00;99.90;;;;;;5044810;28;20126;-68
2022/04/11 02:29:41;;;;;;;4.97;2.15;;;1.00;99.90;;;;;;5047186;28;20053;-68
2022/04/11 02:32:08;;;;;;;3.72;1.80;;;0.90;99.90;;;;;;5045319;28;20068;-67
2022/04/11 02:34:33;;;;;;;4.55;2.53;;;1.00;99.90;;;;;;5046142;28;20045;-68
2022/04/11 02:36:59;;;;;;;5.05;2.30;;;1.00;99.90;;;;;;5050077;28;20110;-67
2022/04/11 02:39:25;;;;;;;3.85;2.20;;;1.00;99.90;;;;;;5048173;28;20064;-68
2022/04/11 02:41:50;;;;;;;6.13;2.78;;;1.00;99.90;;;;;;5048823;28;20455;-67
2022/04/11 02:44:16;;;;;;;4.03;2.67;;;1.00;99.90;;;;;;5053118;28;20487;-67
2022/04/11 02:46:42;;;;;;;3.53;2.20;;;1.00;99.90;;;;;;5048618;28;20365;-68
2022/04/11 02:49:11;;;;;;;5.13;3.22;;;1.00;99.90;;;;;;5047984;28;20036;-68
2022/04/11 02:51:36;;;;;;;6.93;3.55;;;1.10;99.90;;;;;;5083970;28;20045;-68
2022/04/11 02:54:07;;;;;;;4.55;2.35;;;1.10;99.90;;;;;;5048276;28;20087;-68
2022/04/11 02:56:33;;;;;;;5.30;3.13;;;1.10;99.90;;;;;;5049677;28;20047;-68
2022/04/11 02:58:59;;;;;;;4.35;2.88;;;1.10;99.90;;;;;;5049080;28;20071;-68
2022/04/11 03:01:25;;;;;;;7.30;3.35;;;1.10;99.90;;;;;;5048419;28;20053;-68
2022/04/11 03:03:50;;;;;;;4.65;3.13;;;1.10;99.90;;;;;;5045911;28;20049;-68
2022/04/11 03:06:16;;;;;;;6.45;3.60;;;1.10;99.90;;;;;;5049532;28;20051;-68
2022/04/11 03:08:42;;;;;;;4.63;3.30;;;1.10;99.90;;;;;;5046682;28;20068;-68
2022/04/11 03:11:07;;;;;;;5.05;2.78;;;1.10;99.90;;;;;;5046373;28;20412;-68
2022/04/11 03:13:33;;;;;;;3.13;2.58;;;1.10;99.90;;;;;;5046822;28;20175;-68
2022/04/11 03:15:59;;;;;;;4.45;2.95;;;1.00;99.90;;;;;;5046216;28;20114;-68
2022/04/11 03:18:24;;;;;;;5.22;3.00;;;1.00;99.90;;;;;;5046631;28;20063;-68
2022/04/11 03:20:50;;;;;;;4.28;2.85;;;0.90;99.90;;;;;;5046354;28;20040;-68
2022/04/11 03:23:16;;;;;;;6.35;2.70;;;0.90;99.90;;;;;;5046818;28;20130;-68
2022/04/11 03:25:42;;;;;;;5.40;2.60;;;0.90;99.90;;;;;;5047891;28;20092;-68
2022/04/11 03:28:07;;;;;;;4.30;2.70;;;0.90;99.90;;;;;;5047628;28;20385;-68
2022/04/11 03:30:33;;;;;;;4.70;2.83;;;0.80;99.90;;;;;;5026987;28;20131;-68
2022/04/11 03:32:59;;;;;;;5.40;2.72;;;0.80;99.90;;;;;;5045142;28;20098;-68
2022/04/11 03:35:24;;;;;;;4.85;2.58;;;0.80;99.90;;;;;;5045795;28;20033;-68
2022/04/11 03:37:50;;;;;;;4.32;2.63;;;0.80;99.90;;;;;;5045225;28;20049;-68
2022/04/11 03:40:16;;;;;;;5.55;2.10;;;0.80;99.90;;;;;;5046000;28;20095;-68
2022/04/11 03:42:41;;;;;;;4.35;2.28;;;0.80;99.90;;;;;;5046798;28;20059;-69
2022/04/11 03:45:11;;;;;;;5.07;2.10;;;0.80;99.90;;;;;;5044535;28;20049;-68
2022/04/11 03:47:38;;;;;;;4.15;2.22;;;0.80;99.90;;;;;;5076247;28;20081;-68
2022/04/11 03:50:04;;;;;;;4.55;2.03;;;0.80;99.90;;;;;;5044783;28;20583;-68
2022/04/11 03:52:30;;;;;;;3.67;2.10;;;0.80;99.90;;;;;;5053595;28;20098;-68
2022/04/11 03:54:55;;;;;;;3.83;2.33;;;0.80;99.90;;;;;;5045703;28;20033;-68
2022/04/11 03:57:22;;;;;;;2.17;1.60;;;0.80;99.90;;;;;;5028672;28;20059;-68
2022/04/11 03:59:47;;;;;;;4.18;2.22;;;0.90;99.90;;;;;;5047483;28;20398;-68
2022/04/11 04:02:13;;;;;;;3.55;2.08;;;0.90;99.90;;;;;;5042204;28;20041;-68
2022/04/11 04:04:39;;;;;;;5.00;2.20;;;1.00;99.90;;;;;;5049923;28;20139;-68
2022/04/11 04:07:04;;;;;;;3.17;2.03;;;1.00;99.90;;;;;;5047618;28;20365;-68
2022/04/11 04:09:30;;;;;;;5.00;2.33;;;1.00;99.90;;;;;;5046639;28;20045;-68
2022/04/11 04:11:56;;;;;;;4.07;2.50;;;1.10;99.90;;;;;;5048733;28;20098;-68
2022/04/11 04:14:22;;;;;;;3.42;2.53;;;1.10;99.90;;;;;;5047786;28;20029;-68
2022/04/11 04:16:47;;;;;;;3.65;2.40;;;1.20;99.90;;;;;;5043927;28;20052;-68
2022/04/11 04:19:13;;;;;;;6.05;2.95;;;1.20;99.90;;;;;;5048139;28;20045;-68
2022/04/11 04:21:39;;;;;;;5.15;2.17;;;1.20;99.90;;;;;;5046522;28;20274;-69
2022/04/11 04:24:05;;;;;;;3.67;2.30;;;1.30;99.90;;;;;;5045661;28;20463;-68
2022/04/11 04:26:30;;;;;;;3.45;2.20;;;1.30;99.90;;;;;;5045072;28;20087;-68
2022/04/11 04:28:56;;;;;;;5.88;2.83;;;1.40;99.90;;;;;;5044524;28;20045;-68
2022/04/11 04:31:22;;;;;;;4.63;2.30;;;1.40;99.90;;;;;;5044239;28;20570;-68
2022/04/11 04:33:47;;;;;;;4.35;2.38;;;1.40;99.90;;;;;;5042039;28;20086;-68
2022/04/11 04:36:13;;;;;;;4.63;1.92;;;1.50;99.90;;;;;;5045929;28;20119;-68
2022/04/11 04:38:39;;;;;;;7.93;2.47;;;1.50;99.90;;;;;;5049046;28;20107;-68
2022/04/11 04:41:04;;;;;;;3.17;2.15;;;1.60;99.90;;;;;;5049759;28;20040;-68
2022/04/11 04:43:30;;;;;;;3.25;2.28;;;1.60;99.90;;;;;;5049597;28;20099;-68
2022/04/11 04:45:56;;;;;;;4.30;2.28;;;1.60;99.90;;;;;;5048038;28;20048;-68
2022/04/11 04:48:21;;;;;;;3.28;2.13;;;1.60;99.90;;;;;;5048065;28;20041;-68
2022/04/11 04:50:47;;;;;;;5.25;2.50;;;1.70;99.90;;;;;;5050049;28;20041;-68
2022/04/11 04:53:13;;;;;;;3.25;2.28;;;1.80;99.90;;;;;;5050801;28;20033;-68
2022/04/11 04:55:38;;;;;;;6.07;2.60;;;1.80;99.90;;;;;;5047935;28;20052;-68
2022/04/11 04:58:04;;;;;;;9.93;2.97;;;1.80;99.90;;;;;;5049482;28;20341;-68
2022/04/11 05:00:30;;;;;;;3.13;1.75;;;1.90;99.90;;;;;;5048583;28;20372;-68
2022/04/11 05:02:56;;;;;;;4.50;2.05;;;2.00;99.90;;;;;;5049300;28;20079;-68
2022/04/11 05:05:22;;;;;;;5.28;2.40;;;2.00;99.90;;;;;;5063294;28;20044;-68
2022/04/11 05:07:48;;;;;;;3.40;1.88;;;2.00;99.90;;;;;;5051219;28;20037;-68
2022/04/11 05:10:14;;;;;;;5.10;2.22;;;2.10;99.90;;;;;;5045928;28;20043;-68
2022/04/11 05:12:44;;;;;;;3.60;1.90;;;2.10;99.90;;;;;;5080508;28;20099;-68
2022/04/11 05:15:11;;;;;;;4.50;2.05;;;2.20;99.90;;;;;;5045821;28;20037;-68
2022/04/11 05:17:37;;;;;;;4.05;2.45;;;2.20;99.90;;;;;;5045368;28;20135;-68
2022/04/11 05:20:05;;;;;;;4.53;2.30;;;2.30;99.90;;;;;;5048872;28;20049;-68
2022/04/11 05:22:31;;;;;;;3.30;2.22;;;2.30;99.90;;;;;;5048866;28;20079;-68
2022/04/11 05:24:57;;;;;;;6.10;2.40;;;2.40;99.90;;;;;;5049203;28;20080;-68
2022/04/11 05:27:22;;;;;;;4.70;2.25;;;2.40;99.90;;;;;;5035979;28;20099;-68
2022/04/11 05:29:48;;;;;;;4.03;2.45;;;2.40;99.90;;;;;;5047159;28;20045;-68
2022/04/11 05:32:14;;;;;;;5.78;2.15;;;2.40;99.90;;;;;;5048955;28;20076;-68
2022/04/11 05:34:39;;;;;;;5.82;1.88;;;2.40;99.90;;;;;;5048347;28;20061;-68
2022/04/11 05:37:06;;;;;;;5.45;2.28;;;2.50;99.90;;;;;;5050167;28;20118;-68
2022/04/11 05:39:31;;;;;;;4.00;1.95;;;2.50;99.90;;;;;;5053709;28;20377;-68
2022/04/11 05:41:57;;;;;;;4.60;1.95;;;2.50;99.90;;;;;;5034576;28;20068;-68
2022/04/11 05:44:23;;;;;;;3.80;2.10;;;2.50;99.90;;;;;;5050398;28;20045;-68
2022/04/11 05:46:52;;;;;;;3.25;2.20;;;2.50;99.90;;;;;;5050426;28;20049;-68
2022/04/11 05:49:22;;;;;;;3.95;1.90;;;2.50;99.90;;;;;;5079764;28;20488;-68
2022/04/11 05:51:48;;;;;;;3.78;1.88;;;2.50;99.90;;;;;;5050502;28;20114;-68
2022/04/11 05:54:14;;;;;;;3.08;1.95;;;2.60;99.90;;;;;;5051218;28;20443;-68
2022/04/11 05:56:40;;;;;;;4.03;2.05;;;2.60;99.90;;;;;;5051876;28;20519;-68
2022/04/11 05:59:08;;;;;;;3.03;1.95;;;2.70;99.90;;;;;;5050323;28;20037;-68
2022/04/11 06:01:36;;;;;;;3.90;2.22;;;2.70;99.90;;;;;;5050004;28;20090;-68
2022/04/11 06:04:03;;;;;;;4.18;2.53;;;2.70;99.90;;;;;;5050911;28;20053;-68
2022/04/11 06:06:28;;;;;;;3.97;1.92;;;2.70;99.90;;;;;;5049739;28;20048;-68
2022/04/11 06:08:54;;;;;;;5.30;1.85;;;2.70;99.90;;;;;;5048554;28;20040;-68
2022/04/11 06:11:20;;;;;;;3.92;1.73;;;2.80;99.90;;;;;;5049659;28;20048;-68
2022/04/11 06:13:45;;;;;;;4.18;1.73;;;2.80;99.90;;;;;;5046386;28;20468;-68
2022/04/11 06:16:14;;;;;;;5.38;2.10;;;2.90;99.90;;;;;;5050199;28;20033;-68
2022/04/11 06:18:40;;;;;;;4.70;2.38;;;2.90;99.90;;;;;;5051159;28;20123;-68
2022/04/11 06:21:05;;;;;;;4.88;2.17;;;3.00;99.90;;;;;;5051887;28;20167;-68
2022/04/11 06:23:31;;;;;;;5.65;2.33;;;3.10;99.90;;;;;;5052564;28;20483;-68
2022/04/11 06:25:57;;;;;;;5.07;2.38;;;3.10;99.90;;;;;;5052258;28;20076;-68
2022/04/11 06:28:23;;;;;;;6.40;2.25;;;3.20;99.90;;;;;;5050005;28;20134;-67
2022/04/11 06:30:49;;;;;;;5.70;2.50;;;3.30;99.90;;;;;;5049601;28;20144;-67
2022/04/11 06:33:14;;;;;;;7.68;2.05;;;3.40;99.90;;;;;;5052628;28;20055;-67
2022/04/11 06:35:40;;;;;;;4.05;2.45;;;3.40;99.90;;;;;;5049938;28;20111;-68
2022/04/11 06:38:06;;;;;;;4.65;2.45;;;3.50;99.90;;;;;;5052260;28;20116;-68
2022/04/11 06:40:32;;;;;;;5.45;2.80;;;3.50;99.90;;;;;;5050135;28;20084;-68
2022/04/11 06:42:57;;;;;;;4.20;2.13;;;3.60;99.90;;;;;;5049818;28;20692;-68
2022/04/11 06:45:23;;;;;;;6.57;2.38;;;3.70;99.90;;;;;;5050234;28;20115;-67
2022/04/11 06:47:49;;;;;;;4.00;2.40;;;3.70;99.90;;;;;;5050643;28;20041;-67
2022/04/11 06:50:15;;;;;;;5.40;2.45;;;3.80;99.90;;;;;;5043220;28;20080;-68
2022/04/11 06:52:41;;;;;;;6.00;2.85;;;3.80;99.90;;;;;;5050073;28;20056;-68
2022/04/11 06:55:07;;;;;;;7.05;3.10;;;3.90;99.90;;;;;;5050772;28;20033;-68
2022/04/11 06:57:33;;;;;;;8.90;2.85;;;4.00;99.90;;;;;;5046796;28;20329;-69
2022/04/11 07:00:00;;;;;;;5.13;2.50;;;4.10;99.90;;;;;;5049940;28;20044;-68
2022/04/11 07:02:25;;;;;;;4.28;2.50;;;4.20;99.90;;;;;;5048365;28;20039;-68
2022/04/11 07:04:51;;;;;;;7.75;2.78;;;4.20;99.90;;;;;;5032911;28;20131;-68
2022/04/11 07:07:17;;;;;;;5.38;2.58;;;4.30;99.90;;;;;;5050531;28;20033;-68
2022/04/11 07:09:42;;;;;;;5.82;2.70;;;4.30;99.90;;;;;;5031200;28;20044;-68
2022/04/11 07:12:08;;;;;;;4.93;2.53;;;4.40;99.90;;;;;;5048329;28;20051;-69
2022/04/11 07:14:34;;;;;;;5.20;2.42;;;4.50;99.90;;;;;;5048008;28;20044;-68
2022/04/11 07:17:00;;;;;;;5.22;2.50;;;4.50;99.90;;;;;;5047726;28;21309;-68
2022/04/11 07:19:25;;;;;;;5.95;2.95;;;4.50;99.90;;;;;;5049037;28;20091;-69
2022/04/11 07:21:51;;;;;;;5.93;2.80;;;4.60;99.90;;;;;;5049742;28;20045;-69
2022/04/11 07:24:17;;;;;;;6.82;3.13;;;4.70;99.90;;;;;;5048193;28;20056;-68
2022/04/11 07:26:43;;;;;;;4.22;2.60;;;4.70;99.90;;;;;;5047943;28;20053;-68
2022/04/11 07:29:10;;;;;;;4.68;3.20;;;4.80;99.90;;;;;;5047427;28;20618;-68
2022/04/11 07:31:36;;;;;;;4.47;2.65;;;4.90;99.90;;;;;;5047495;28;20049;-68
2022/04/11 07:34:01;;;;;;;7.30;2.70;;;5.00;99.90;;;;;;5048319;28;20124;-69
2022/04/11 07:36:28;;;;;;;6.43;3.05;;;5.10;99.90;;;;;;5050067;28;20087;-69
2022/04/11 07:38:55;;;;;;;7.63;3.17;;;5.10;99.90;;;;;;5050020;28;20045;-69
2022/04/11 07:41:21;;;;;;;6.22;2.92;;;5.20;99.90;;;;;;5048002;28;20057;-68
2022/04/11 07:43:46;;;;;;;6.53;3.00;;;5.30;99.90;;;;;;5049087;28;20036;-69
2022/04/11 07:46:12;;;;;;;8.43;2.83;;;5.40;99.90;;;;;;5030303;28;20095;-69
2022/04/11 07:48:38;;;;;;;6.03;3.33;;;5.40;99.90;;;;;;5050438;28;20037;-69
2022/04/11 07:51:03;;;;;;;7.22;3.10;;;5.50;99.90;;;;;;5050740;28;20033;-67
2022/04/11 07:53:29;;;;;;;5.75;3.38;;;5.60;99.90;;;;;;5048902;28;20581;-68
2022/04/11 07:55:55;;;;;;;5.13;3.65;;;5.80;99.90;;;;;;5049016;28;20055;-68
2022/04/11 07:58:21;;;;;;;5.03;3.22;;;5.80;99.90;;;;;;5048431;28;20157;-68
2022/04/11 08:00:53;;;;;;;7.47;3.97;;;6.00;99.90;;;;;;5046193;28;20524;-68
2022/04/11 08:03:20;;;;;;;8.77;3.85;;;6.10;99.90;;;;;;5049567;28;20040;-68
2022/04/11 08:05:46;;;;;;;8.57;3.38;;;6.20;99.90;;;;;;5048609;28;20106;-68
2022/04/11 08:08:11;;;;;;;7.05;3.42;;;6.40;99.90;;;;;;5051685;28;20489;-69
2022/04/11 08:10:37;;;;;;;8.52;4.18;;;6.50;99.90;;;;;;5052599;28;20078;-69
2022/04/11 08:13:03;;;;;;;7.15;4.22;;;6.60;99.90;;;;;;5051427;28;20053;-68
2022/04/11 08:15:31;;;;;;;5.07;3.47;;;6.70;99.90;;;;;;5052787;28;20361;-68
2022/04/11 08:17:57;;;;;;;6.70;3.33;;;6.90;99.90;;;;;;5050506;28;20158;-69
2022/04/11 08:20:24;;;;;;;7.82;3.78;;;7.10;99.90;;;;;;5052987;28;20052;-68
2022/04/11 08:22:50;;;;;;;9.77;3.45;;;7.20;99.90;;;;;;5048329;28;20037;-68
2022/04/11 08:25:16;;;;;;;6.03;4.03;;;7.40;99.90;;;;;;5034882;28;20041;-69
2022/04/11 08:27:42;;;;;;;6.18;4.20;;;7.50;99.90;;;;;;5051699;28;20052;-69
2022/04/11 08:30:10;;;;;;;6.47;3.53;;;7.50;99.90;;;;;;5050910;28;20059;-69
2022/04/11 08:32:39;;;;;;;6.38;3.47;;;7.70;99.90;;;;;;5052501;28;20037;-69
2022/04/11 08:35:05;;;;;;;6.03;3.58;;;7.90;99.90;;;;;;5053054;28;20036;-69
2022/04/11 08:37:31;;;;;;;5.72;3.63;;;8.00;99.90;;;;;;5053013;28;20093;-69
2022/04/11 08:39:57;;;;;;;6.63;3.33;;;8.20;99.90;;;;;;5053944;28;20036;-69
2022/04/11 08:42:23;;;;;;;7.28;3.90;;;8.50;99.90;;;;;;5053511;28;20056;-69
2022/04/11 08:44:55;;;;;;;6.50;3.55;;;8.80;99.90;;;;;;5052484;28;20040;-69
2022/04/11 08:47:21;;;;;;;8.88;3.60;;;9.20;99.90;;;;;;5050078;28;20065;-69
2022/04/11 08:49:47;;;;;;;6.85;3.75;;;9.70;99.90;;;;;;5052884;28;20435;-69
2022/04/11 08:52:13;;;;;;;7.18;3.72;;;10.20;99.10;;;;;;5051127;28;20037;-69
2022/04/11 08:54:39;;;;;;;5.55;3.30;;;10.70;99.60;;;;;;5051363;28;20037;-69
2022/04/11 08:57:05;;;;;;;6.53;3.58;;;11.10;98.10;;;;;;5085034;28;20039;-69
2022/04/11 08:59:34;;;;;;;8.80;3.35;;;11.50;96.00;;;;;;5052181;28;20388;-69
2022/04/11 09:01:59;;;;;;;7.03;3.65;;;12.00;95.50;;;;;;5051328;28;20061;-69
2022/04/11 09:04:25;;;;;;;6.90;3.33;;;12.80;95.00;;;;;;5051402;28;20037;-69
2022/04/11 09:06:56;;;;;;;4.78;2.90;;;13.30;92.80;;;;;;5050600;28;20037;-69
2022/04/11 09:09:42;;;;;;;6.03;3.15;;;13.60;89.80;;;;;;5053102;28;20041;-69
2022/04/11 09:12:16;;;;;;;6.45;2.88;;;14.30;82.70;;;;;;5049859;28;20057;-69
2022/04/11 09:14:43;;;;;;;6.40;2.88;;;14.90;86.00;;;;;;5050101;28;20073;-69
2022/04/11 09:17:09;;;;;;;8.38;3.53;;;15.60;82.50;;;;;;5047890;28;20045;-69
2022/04/11 09:19:36;;;;;;;4.88;2.38;;;15.80;80.50;;;;;;5052585;28;20428;-70
2022/04/11 09:22:02;;;;;;;4.10;2.20;;;15.90;72.10;;;;;;5050440;28;20083;-70
2022/04/11 09:24:30;;;;;;;4.30;1.90;;;16.20;70.60;;;;;;5050102;28;20068;-70
2022/04/11 09:26:57;;;;;;;4.85;1.70;;;16.30;67.20;;;;;;5049458;28;20064;-70
2022/04/11 09:29:23;;;;;;;3.90;2.10;;;16.20;64.70;;;;;;5050700;28;20048;-71
2022/04/11 09:31:50;;;;;;;4.70;2.25;;;16.30;63.20;;;;;;5050276;28;20037;-71
2022/04/11 09:34:28;;;;;;;4.65;1.73;;;16.50;63.60;;;;;;5050329;28;20484;-71
2022/04/11 09:36:56;;;;;;;4.32;1.70;;;16.70;60.70;;;;;;5050891;28;20033;-71
2022/04/11 09:39:23;;;;;;;5.10;1.60;;;16.50;57.10;;;;;;5051044;28;20135;-71
2022/04/11 09:41:50;;;;;;;4.15;1.60;;;16.20;55.70;;;;;;5051918;28;20499;-71
2022/04/11 09:44:28;;;;;;;3.75;1.63;;;16.30;57.50;;;;;;5043919;28;20052;-71
2022/04/11 09:46:57;;;;;;;3.72;1.58;;;16.30;51.50;;;;;;5048509;28;20064;-71
2022/04/11 09:49:24;;;;;;;4.72;1.73;;;16.30;52.40;;;;;;5051450;28;20044;-71
2022/04/11 09:52:06;;;;;;;2.85;1.50;;;16.30;54.10;;;;;;5051409;28;20048;-71
2022/04/11 09:54:33;;;;;;;3.25;1.40;;;16.50;51.70;;;;;;5052233;28;20049;-71
2022/04/11 09:57:00;;;;;;;3.53;1.27;;;16.60;51.30;;;;;;5049577;28;20049;-71
2022/04/11 09:59:26;;;;;;;3.05;1.02;;;16.70;51.20;;;;;;5049896;28;20052;-71
2022/04/11 10:01:54;;;;;;;3.63;1.00;;;16.60;46.20;;;;;;5046148;28;20140;-71
2022/04/11 10:04:21;;;;;;;4.75;1.50;;;16.70;48.40;;;;;;5049761;28;20072;-71
2022/04/11 10:06:47;;;;;;;6.18;2.95;;;16.60;47.20;;;;;;5052234;28;20043;-71
2022/04/11 10:09:14;;;;;;;4.60;3.15;;;16.60;48.40;;;;;;5054378;28;20064;-71
2022/04/11 10:11:44;;;;;;;6.05;3.45;;;16.20;47.40;;;;;;5032573;28;20111;-71
2022/04/11 10:14:11;;;;;;;6.93;4.05;;;16.10;49.40;;;;;;5047166;28;20049;-71
2022/04/11 10:16:44;;;;;;;7.57;4.13;;;16.20;49.00;;;;;;5046775;28;20118;-71
2022/04/11 10:19:11;;;;;;;6.15;4.05;;;16.50;51.00;;;;;;5083545;28;20067;-71
2022/04/11 10:21:41;;;;;;;6.75;4.55;;;16.80;51.00;;;;;;5045627;28;20091;-70
2022/04/11 10:24:16;;;;;;;7.22;4.63;;;16.90;47.90;;;;;;5048525;28;20044;-71
2022/04/11 10:26:46;;;;;;;5.93;4.72;;;16.70;47.20;;;;;;5065466;28;20041;-71
2022/04/11 10:29:39;;;;;;;6.13;4.85;;;16.60;47.90;;;;;;5049733;28;20454;-71
2022/04/11 10:32:10;;;;;;;5.75;4.78;;;17.00;47.60;;;;;;5047128;28;20120;-71
2022/04/11 10:34:46;;;;;;;6.45;4.82;;;17.20;48.00;;;;;;5048635;28;20052;-71
2022/04/11 10:37:12;;;;;;;6.70;4.57;;;17.20;47.60;;;;;;5049241;28;20527;-71
2022/04/11 10:39:39;;;;;;;6.13;4.40;;;17.20;47.60;;;;;;5049828;28;20052;-71
2022/04/11 10:42:25;;;;;;;5.35;4.30;;;17.20;46.90;;;;;;5046676;28;20040;-72
2022/04/11 10:44:59;;;;;;;6.20;4.45;;;17.20;45.60;;;;;;5048706;28;20052;-71
2022/04/11 10:47:34;;;;;;;6.78;4.60;;;17.20;46.80;;;;;;5047201;28;20044;-71
2022/04/11 10:50:01;;;;;;;6.57;4.93;;;17.10;47.50;;;;;;5048972;28;20053;-71
2022/04/11 10:52:35;;;;;;;6.35;4.93;;;17.10;47.90;;;;;;5048898;28;20083;-71
2022/04/11 10:55:17;;;;;;;6.88;5.00;;;17.20;47.70;;;;;;5045727;28;20048;-71
2022/04/11 10:57:43;;;;;;;5.68;4.55;;;17.30;47.70;;;;;;5057793;28;20489;-71
2022/04/11 11:00:19;;;;;;;5.75;4.28;;;17.20;48.30;;;;;;5044693;28;20107;-70
2022/04/11 11:02:57;;;;;;;7.32;5.28;;;17.20;48.20;;;;;;5078178;28;20425;-70
2022/04/11 11:05:29;;;;;;;6.03;5.15;;;17.30;48.70;;;;;;5047344;28;20051;-70
2022/04/11 11:08:10;;;;;;;8.70;5.10;;;17.60;48.20;;;;;;5046933;28;20056;-70
2022/04/11 11:10:43;;;;;;;6.75;4.90;;;17.90;47.00;;;;;;5043683;28;20056;-71
2022/04/11 11:13:29;;;;;;;7.47;5.00;;;17.90;47.60;;;;;;5044776;28;20044;-70
2022/04/11 11:16:17;;;;;;;6.68;5.00;;;18.10;46.60;;;;;;5042670;28;20107;-70
2022/04/11 11:18:46;;;;;;;7.80;6.03;;;18.00;47.00;;;;;;5038981;28;20060;-70
2022/04/11 11:21:31;;;;;;;7.28;5.35;;;17.60;45.50;;;;;;5043769;28;20049;-70
2022/04/11 11:24:02;;;;;;;;;;;17.50;47.50;;;;;;5033357;28;20064;-70
2022/04/11 11:26:38;;;;;;;6.90;5.60;;;17.50;46.60;;;;;;5047694;28;19916;-70
2022/04/11 11:29:25;;;;;;;7.80;6.03;;;17.50;48.00;;;;;;5049739;28;20083;-70
2022/04/11 11:31:57;;;;;;;7.80;5.57;;;17.80;47.60;;;;;;5046902;28;20041;-70
2022/04/11 11:34:26;;;;;;;6.22;5.05;;;17.80;47.40;;;;;;5025909;28;20528;-70
2022/04/11 11:37:03;;;;;;;5.75;5.13;;;17.90;46.20;;;;;;5057320;28;20041;-70
2022/04/11 11:39:30;;;;;;;6.85;5.22;;;17.80;46.90;;;;;;5043024;28;20077;-70
2022/04/11 11:42:02;;;;;;;8.93;5.75;;;18.10;47.00;;;;;;5046932;28;20049;-70
2022/04/11 11:44:30;;;;;;;8.00;6.28;;;18.50;46.00;;;;;;5050482;28;20045;-71
2022/04/11 11:47:02;;;;;;;7.18;6.13;;;18.70;45.70;;;;;;5076880;28;20075;-71
2022/04/11 11:49:40;;;;;;;7.97;5.63;;;18.70;45.20;;;;;;5045597;28;20041;-71
2022/04/11 11:52:18;;;;;;;7.15;5.30;;;19.10;46.30;;;;;;5047642;28;20051;-71
2022/04/11 11:54:45;;;;;;;6.68;5.68;;;19.50;44.90;;;;;;5050090;28;20056;-71
2022/04/11 11:57:20;;;;;;;8.38;6.28;;;19.70;44.20;;;;;;5048009;28;20060;-71
2022/04/11 11:59:54;;;;;;;8.32;5.90;;;19.80;43.40;;;;;;5081125;28;20053;-71
2022/04/11 12:05:21;;;;;;;7.03;5.60;;;19.70;42.40;;;;;;5049760;28;20176;-71
2022/04/11 12:07:49;;;;;;;7.22;5.40;;;19.60;40.80;;;;;;5047372;28;20041;-71
2022/04/11 12:10:17;;;;;;;6.35;5.35;;;19.40;42.40;;;;;;5047870;28;20648;-71
2022/04/11 12:12:46;;;;;;;7.78;5.90;;;19.30;43.10;;;;;;5047721;28;20121;-71
2022/04/11 12:15:14;;;;;;;7.72;5.90;;;19.40;42.10;;;;;;5048650;28;20131;-70
2022/04/11 12:17:46;;;;;;;7.43;6.10;;;19.30;41.60;;;;;;5046979;28;20056;-70
2022/04/11 12:20:18;;;;;;;6.70;4.80;;;19.50;41.40;;;;;;5043704;28;20460;-71
2022/04/11 12:23:19;;;;;;;7.75;5.20;;;19.40;41.20;;;;;;5048256;28;20138;-70
2022/04/11 12:25:54;;;;;;;5.75;5.10;;;19.40;39.50;;;;;;5023889;28;20045;-70
2022/04/11 12:28:23;;;;;;;6.75;5.88;;;19.30;41.60;;;;;;5041549;28;20088;-70
2022/04/11 12:31:16;;;;;;;6.47;5.55;;;19.10;41.90;;;;;;5042009;28;20055;-70
2022/04/11 12:33:49;;;;;;;8.18;6.45;;;19.00;41.20;;;;;;5047288;28;20047;-70
2022/04/11 12:36:24;;;;;;;8.15;6.45;;;18.60;40.90;;;;;;5025374;28;20198;-68
2022/04/11 12:38:54;;;;;;;9.13;6.03;;;18.50;41.70;;;;;;5076902;28;20052;-70
2022/04/11 12:41:50;;;;;;;7.50;5.38;;;18.50;41.60;;;;;;5044036;28;20049;-69
2022/04/11 12:44:20;;;;;;;7.75;5.63;;;18.50;42.50;;;;;;5035659;28;20125;-69
2022/04/11 12:46:47;;;;;;;5.97;5.32;;;18.50;42.70;;;;;;5073575;28;20064;-70
2022/04/11 12:49:22;;;;;;;7.78;5.60;;;18.70;42.30;;;;;;5047608;28;20083;-69
2022/04/11 12:52:03;;;;;;;8.13;5.63;;;18.90;43.10;;;;;;5045994;28;20052;-70
2022/04/11 12:54:43;;;;;;;6.13;5.47;;;18.80;40.40;;;;;;5051902;28;20227;-71
2022/04/11 12:57:12;;;;;;;7.88;5.97;;;18.50;41.70;;;;;;5048468;28;20033;-70
2022/04/11 12:59:42;;;;;;;7.13;5.82;;;18.40;41.10;;;;;;5049962;28;20053;-71
2022/04/11 13:02:12;;;;;;;7.68;5.53;;;18.30;41.80;;;;;;5048833;28;20099;-71